Time;durP1;ratioP1;P1;durP2;ratioP2;P2;SDS_P1;SDS_P2;PMS_P1;PMS_P2;Temp;Humidity;BMP_temperature;BMP_pressure;BME280_temperature;BME280_humidity;BME280_pressure;Samples;Min_cycle;Max_cycle;Signal;HPM_P1;HPM_P2
2023/09/05 00:01:51;;;;;;;5.88;3.90;;;;;;;;;;4996194;28;20537;-63
2023/09/05 00:04:17;;;;;;;8.73;4.00;;;;;;;;;;4996008;28;20034;-63
2023/09/05 00:06:43;;;;;;;6.57;3.45;;;;;;;;;;4996015;28;20439;-67
2023/09/05 00:09:08;;;;;;;5.07;3.33;;;;;;;;;;4995752;28;20438;-67
2023/09/05 00:11:34;;;;;;;5.97;3.55;;;;;;;;;;4995915;28;20420;-63
2023/09/05 00:14:03;;;;;;;5.72;3.85;;;;;;;;;;4976734;28;20023;-63
2023/09/05 00:16:29;;;;;;;8.25;3.72;;;;;;;;;;4976366;28;20023;-66
2023/09/05 00:18:54;;;;;;;7.50;3.75;;;;;;;;;;4976077;28;20408;-62
2023/09/05 00:21:20;;;;;;;4.93;3.60;;;;;;;;;;4988245;28;20076;-67
2023/09/05 00:23:45;;;;;;;5.55;3.33;;;;;;;;;;4975573;28;20030;-65
2023/09/05 00:26:11;;;;;;;5.43;3.35;;;;;;;;;;4988444;28;20167;-65
2023/09/05 00:28:36;;;;;;;5.18;3.17;;;;;;;;;;4995385;28;20097;-65
2023/09/05 00:31:02;;;;;;;5.78;3.22;;;;;;;;;;4995203;28;20026;-67
2023/09/05 00:33:31;;;;;;;6.53;3.60;;;;;;;;;;4995502;28;20395;-62
2023/09/05 00:35:57;;;;;;;5.25;3.47;;;;;;;;;;4995416;28;20035;-64
2023/09/05 00:38:22;;;;;;;6.88;3.50;;;;;;;;;;4995438;28;20430;-62
2023/09/05 00:40:49;;;;;;;8.77;4.20;;;;;;;;;;4995574;28;20031;-68
2023/09/05 00:43:20;;;;;;;8.07;3.45;;;;;;;;;;4995076;28;20091;-67
2023/09/05 00:45:51;;;;;;;8.18;3.60;;;;;;;;;;4995339;28;20045;-65
2023/09/05 00:48:18;;;;;;;7.50;3.75;;;;;;;;;;4995394;28;20144;-63
2023/09/05 00:50:46;;;;;;;6.05;4.03;;;;;;;;;;4995260;28;20030;-63
2023/09/05 00:53:12;;;;;;;5.93;4.05;;;;;;;;;;4995031;28;20029;-64
2023/09/05 00:55:38;;;;;;;6.20;3.88;;;;;;;;;;4995059;28;20028;-63
2023/09/05 00:58:04;;;;;;;6.00;3.75;;;;;;;;;;4994994;28;20411;-67
2023/09/05 01:00:29;;;;;;;6.55;4.40;;;;;;;;;;4994978;28;20109;-67
2023/09/05 01:02:54;;;;;;;8.52;4.47;;;;;;;;;;4994919;28;20023;-64
2023/09/05 01:05:27;;;;;;;6.10;3.55;;;;;;;;;;4994925;28;20054;-62
2023/09/05 01:08:25;;;;;;;6.28;4.13;;;;;;;;;;4994859;28;20046;-67
2023/09/05 01:11:08;;;;;;;6.35;4.10;;;;;;;;;;4994631;28;20061;-64
2023/09/05 01:13:38;;;;;;;7.55;3.90;;;;;;;;;;4978972;28;20501;-62
2023/09/05 01:16:04;;;;;;;9.65;4.32;;;;;;;;;;4975276;28;20045;-63
2023/09/05 01:18:33;;;;;;;6.43;3.70;;;;;;;;;;4975337;28;20117;-62
2023/09/05 01:21:23;;;;;;;8.00;4.47;;;;;;;;;;4994356;28;20498;-66
2023/09/05 01:24:21;;;;;;;7.95;4.07;;;;;;;;;;4975511;28;20345;-66
2023/09/05 01:26:49;;;;;;;6.03;3.97;;;;;;;;;;4993945;28;20034;-66
2023/09/05 01:29:18;;;;;;;9.10;4.80;;;;;;;;;;4988855;28;20070;-65
2023/09/05 01:31:44;;;;;;;5.47;3.75;;;;;;;;;;4979242;28;20022;-65
2023/09/05 01:34:09;;;;;;;6.03;4.57;;;;;;;;;;4994579;28;20026;-65
2023/09/05 01:36:34;;;;;;;8.35;3.97;;;;;;;;;;4994510;28;20380;-66
2023/09/05 01:39:00;;;;;;;6.60;4.28;;;;;;;;;;4994349;28;20105;-66
2023/09/05 01:41:26;;;;;;;7.47;4.25;;;;;;;;;;4994225;28;20037;-66
2023/09/05 01:43:51;;;;;;;10.65;4.60;;;;;;;;;;4994255;28;20077;-66
2023/09/05 01:46:16;;;;;;;9.02;3.92;;;;;;;;;;4994339;28;20084;-65
2023/09/05 01:48:42;;;;;;;8.27;4.00;;;;;;;;;;4994367;28;20049;-66
2023/09/05 01:51:09;;;;;;;7.82;4.10;;;;;;;;;;4994066;28;20121;-67
2023/09/05 01:53:34;;;;;;;5.88;4.18;;;;;;;;;;4990400;28;20031;-66
2023/09/05 01:56:00;;;;;;;6.65;4.32;;;;;;;;;;4985775;28;20136;-66
2023/09/05 01:58:25;;;;;;;7.28;4.55;;;;;;;;;;4987014;28;20031;-66
2023/09/05 02:00:50;;;;;;;7.43;4.53;;;;;;;;;;4983121;28;20476;-65
2023/09/05 02:03:16;;;;;;;8.95;4.20;;;;;;;;;;4983545;28;20040;-66
2023/09/05 02:05:41;;;;;;;8.77;4.88;;;;;;;;;;4984309;28;20027;-65
2023/09/05 02:08:07;;;;;;;6.50;4.40;;;;;;;;;;4984670;28;20522;-66
2023/09/05 02:10:32;;;;;;;7.03;4.50;;;;;;;;;;4982233;28;20038;-66
2023/09/05 02:12:58;;;;;;;6.07;4.10;;;;;;;;;;4983736;28;20029;-65
2023/09/05 02:15:23;;;;;;;8.45;4.30;;;;;;;;;;4983968;28;20141;-65
2023/09/05 02:17:50;;;;;;;9.18;4.25;;;;;;;;;;4982377;28;20050;-66
2023/09/05 02:20:16;;;;;;;6.30;4.28;;;;;;;;;;4985085;28;20046;-66
2023/09/05 02:22:43;;;;;;;8.00;4.10;;;;;;;;;;4987984;28;20046;-66
2023/09/05 02:25:08;;;;;;;9.38;4.07;;;;;;;;;;4985561;28;20085;-67
2023/09/05 02:27:34;;;;;;;9.75;4.28;;;;;;;;;;4988105;28;20026;-66
2023/09/05 02:30:01;;;;;;;9.57;4.15;;;;;;;;;;4993498;28;20030;-65
2023/09/05 02:32:30;;;;;;;7.97;4.35;;;;;;;;;;4993628;28;20108;-66
2023/09/05 02:34:56;;;;;;;6.00;4.47;;;;;;;;;;4993600;28;20553;-66
2023/09/05 02:37:21;;;;;;;8.48;4.45;;;;;;;;;;4993330;28;20057;-65
2023/09/05 02:39:47;;;;;;;8.27;5.25;;;;;;;;;;4993496;28;20023;-65
2023/09/05 02:42:12;;;;;;;9.30;4.28;;;;;;;;;;4993332;28;20041;-66
2023/09/05 02:44:38;;;;;;;9.50;4.65;;;;;;;;;;4993196;28;20375;-66
2023/09/05 02:47:03;;;;;;;8.10;4.30;;;;;;;;;;4992808;28;20352;-65
2023/09/05 02:49:30;;;;;;;8.32;4.70;;;;;;;;;;4993215;28;20468;-65
2023/09/05 02:51:57;;;;;;;8.07;4.38;;;;;;;;;;4993403;28;20022;-65
2023/09/05 02:54:22;;;;;;;9.00;4.50;;;;;;;;;;4993091;28;20031;-66
2023/09/05 02:56:47;;;;;;;7.10;4.35;;;;;;;;;;4993096;28;20033;-65
2023/09/05 02:59:13;;;;;;;9.48;4.53;;;;;;;;;;4992983;28;20081;-66
2023/09/05 03:01:39;;;;;;;12.52;5.78;;;;;;;;;;4993105;28;20030;-66
2023/09/05 03:04:04;;;;;;;24.95;13.07;;;;;;;;;;4993161;28;20463;-66
2023/09/05 03:06:30;;;;;;;9.90;6.00;;;;;;;;;;4993192;28;20471;-65
2023/09/05 03:08:55;;;;;;;17.23;5.38;;;;;;;;;;4992711;28;20034;-65
2023/09/05 03:11:20;;;;;;;10.60;4.75;;;;;;;;;;4992980;28;20083;-66
2023/09/05 03:13:47;;;;;;;9.07;4.20;;;;;;;;;;4992980;28;20027;-65
2023/09/05 03:16:12;;;;;;;9.10;4.88;;;;;;;;;;4993027;28;20065;-65
2023/09/05 03:18:38;;;;;;;11.18;4.45;;;;;;;;;;4992846;28;20074;-65
2023/09/05 03:21:04;;;;;;;9.60;5.10;;;;;;;;;;4997184;28;20072;-63
2023/09/05 03:23:29;;;;;;;8.68;4.30;;;;;;;;;;4992458;28;20514;-65
2023/09/05 03:25:56;;;;;;;8.52;4.50;;;;;;;;;;4994732;28;20488;-63
2023/09/05 03:28:22;;;;;;;6.22;4.63;;;;;;;;;;4993007;28;20034;-63
2023/09/05 03:30:47;;;;;;;6.97;4.28;;;;;;;;;;4992818;28;20042;-66
2023/09/05 03:33:13;;;;;;;8.65;4.70;;;;;;;;;;4992822;28;20146;-62
2023/09/05 03:35:38;;;;;;;11.50;4.60;;;;;;;;;;4992794;28;20022;-64
2023/09/05 03:38:06;;;;;;;8.98;4.78;;;;;;;;;;4992774;28;20030;-63
2023/09/05 03:40:31;;;;;;;13.65;4.45;;;;;;;;;;4992362;28;20034;-65
2023/09/05 03:42:57;;;;;;;43.67;20.75;;;;;;;;;;4992791;28;20030;-64
2023/09/05 03:45:22;;;;;;;15.02;7.82;;;;;;;;;;4992756;28;20031;-62
2023/09/05 03:47:48;;;;;;;19.73;8.43;;;;;;;;;;4992904;28;20030;-64
2023/09/05 03:50:15;;;;;;;11.68;4.80;;;;;;;;;;4992629;28;20454;-65
2023/09/05 03:52:41;;;;;;;11.77;4.60;;;;;;;;;;4992544;28;20034;-65
2023/09/05 03:55:07;;;;;;;8.85;4.55;;;;;;;;;;4992384;28;20023;-62
2023/09/05 03:57:32;;;;;;;9.52;4.50;;;;;;;;;;4992970;28;20547;-64
2023/09/05 03:59:57;;;;;;;6.72;3.97;;;;;;;;;;4996368;28;20336;-64
2023/09/05 04:02:23;;;;;;;14.63;4.85;;;;;;;;;;4996138;28;20034;-62
2023/09/05 04:04:48;;;;;;;9.93;5.10;;;;;;;;;;4996129;28;20476;-65
2023/09/05 04:07:14;;;;;;;15.50;6.20;;;;;;;;;;4995780;28;20109;-63
2023/09/05 04:09:39;;;;;;;10.07;4.90;;;;;;;;;;4995622;28;20482;-63
2023/09/05 04:12:05;;;;;;;11.43;4.65;;;;;;;;;;4996201;28;20053;-63
2023/09/05 04:14:30;;;;;;;9.07;4.60;;;;;;;;;;4996069;28;20424;-66
2023/09/05 04:16:56;;;;;;;8.20;4.75;;;;;;;;;;4995918;28;20398;-62
2023/09/05 04:19:21;;;;;;;9.43;5.43;;;;;;;;;;4995562;28;20042;-61
2023/09/05 04:21:47;;;;;;;8.40;4.60;;;;;;;;;;5001196;28;20053;-65
2023/09/05 04:24:12;;;;;;;8.02;4.88;;;;;;;;;;4995877;28;20026;-63
2023/09/05 04:26:37;;;;;;;11.32;5.20;;;;;;;;;;4997359;28;20061;-64
2023/09/05 04:29:04;;;;;;;13.38;5.65;;;;;;;;;;4995615;28;20387;-64
2023/09/05 04:31:30;;;;;;;16.23;5.45;;;;;;;;;;4995589;28;20042;-63
2023/09/05 04:33:55;;;;;;;9.90;5.18;;;;;;;;;;4995691;28;20022;-63
2023/09/05 04:36:22;;;;;;;7.45;4.97;;;;;;;;;;4995296;28;20026;-64
2023/09/05 04:38:49;;;;;;;6.80;5.10;;;;;;;;;;4995552;28;20027;-65
2023/09/05 04:41:16;;;;;;;7.75;5.00;;;;;;;;;;4995410;28;20034;-65
2023/09/05 04:43:41;;;;;;;7.93;5.20;;;;;;;;;;4995332;28;20026;-63
2023/09/05 04:46:08;;;;;;;6.78;4.80;;;;;;;;;;4995245;28;20176;-65
2023/09/05 04:48:34;;;;;;;6.63;4.60;;;;;;;;;;4995444;28;20038;-62
2023/09/05 04:51:02;;;;;;;7.15;4.80;;;;;;;;;;4994896;28;20053;-65
2023/09/05 04:53:28;;;;;;;8.00;4.57;;;;;;;;;;4995205;28;20031;-62
2023/09/05 04:55:56;;;;;;;6.63;5.00;;;;;;;;;;4994635;28;20027;-65
2023/09/05 04:58:22;;;;;;;13.18;5.07;;;;;;;;;;4995194;28;20049;-63
2023/09/05 05:00:49;;;;;;;12.00;5.22;;;;;;;;;;4995104;28;20471;-63
2023/09/05 05:03:15;;;;;;;8.32;5.18;;;;;;;;;;4995002;28;20472;-62
2023/09/05 05:05:40;;;;;;;8.95;4.80;;;;;;;;;;4994623;28;20033;-66
2023/09/05 05:08:06;;;;;;;8.10;5.25;;;;;;;;;;4994882;28;20122;-64
2023/09/05 05:10:33;;;;;;;7.90;5.00;;;;;;;;;;4994430;28;20089;-64
2023/09/05 05:12:59;;;;;;;8.90;4.65;;;;;;;;;;4994511;28;20084;-64
2023/09/05 05:15:25;;;;;;;7.82;4.55;;;;;;;;;;4994748;28;20026;-65
2023/09/05 05:17:50;;;;;;;11.85;5.00;;;;;;;;;;4994733;28;20026;-66
2023/09/05 05:20:18;;;;;;;7.40;4.95;;;;;;;;;;4994506;28;20456;-66
2023/09/05 05:22:43;;;;;;;7.88;4.55;;;;;;;;;;4999505;28;20236;-65
2023/09/05 05:25:09;;;;;;;8.32;4.70;;;;;;;;;;4996263;28;20093;-66
2023/09/05 05:27:34;;;;;;;7.30;4.65;;;;;;;;;;4994620;28;20045;-66
2023/09/05 05:30:02;;;;;;;7.82;5.18;;;;;;;;;;4994493;28;20027;-65
2023/09/05 05:32:27;;;;;;;7.88;4.75;;;;;;;;;;4994577;28;20034;-66
2023/09/05 05:34:52;;;;;;;9.13;4.95;;;;;;;;;;4994283;28;20145;-66
2023/09/05 05:37:18;;;;;;;9.90;4.90;;;;;;;;;;4994277;28;20496;-65
2023/09/05 05:39:44;;;;;;;8.45;4.75;;;;;;;;;;4992955;28;20026;-66
2023/09/05 05:42:10;;;;;;;7.38;4.68;;;;;;;;;;4992957;28;20488;-65
2023/09/05 05:44:35;;;;;;;10.80;4.97;;;;;;;;;;4994302;28;20030;-66
2023/09/05 05:47:01;;;;;;;6.85;4.50;;;;;;;;;;4993924;28;20029;-66
2023/09/05 05:49:29;;;;;;;7.38;4.60;;;;;;;;;;4993894;28;20022;-66
2023/09/05 05:51:56;;;;;;;6.20;4.53;;;;;;;;;;4994311;28;20074;-66
2023/09/05 05:54:22;;;;;;;6.30;4.40;;;;;;;;;;4994090;28;20033;-65
2023/09/05 05:56:49;;;;;;;7.55;4.70;;;;;;;;;;4994136;28;20061;-65
2023/09/05 05:59:14;;;;;;;7.68;4.85;;;;;;;;;;4994052;28;20085;-65
2023/09/05 06:01:39;;;;;;;6.78;4.28;;;;;;;;;;4993851;28;20038;-66
2023/09/05 06:04:05;;;;;;;7.20;4.63;;;;;;;;;;4992642;28;20026;-65
2023/09/05 06:06:30;;;;;;;6.32;4.25;;;;;;;;;;4993875;28;20057;-65
2023/09/05 06:08:56;;;;;;;7.60;4.63;;;;;;;;;;4993826;28;20030;-65
2023/09/05 06:11:21;;;;;;;7.65;4.63;;;;;;;;;;4993543;28;20039;-66
2023/09/05 06:13:46;;;;;;;6.68;4.63;;;;;;;;;;4993714;28;20034;-66
2023/09/05 06:16:12;;;;;;;6.43;4.28;;;;;;;;;;4993513;28;20026;-66
2023/09/05 06:18:37;;;;;;;7.57;4.00;;;;;;;;;;4993562;28;20034;-65
2023/09/05 06:21:03;;;;;;;6.43;4.43;;;;;;;;;;4998379;28;20044;-66
2023/09/05 06:23:30;;;;;;;7.47;4.07;;;;;;;;;;4993563;28;20019;-65
2023/09/05 06:25:55;;;;;;;9.90;4.13;;;;;;;;;;4995112;28;20387;-65
2023/09/05 06:28:21;;;;;;;6.10;3.90;;;;;;;;;;4993252;28;20106;-65
2023/09/05 06:30:46;;;;;;;6.07;4.15;;;;;;;;;;4989841;28;20064;-66
2023/09/05 06:33:12;;;;;;;9.88;3.70;;;;;;;;;;4977014;28;20030;-65
2023/09/05 06:35:38;;;;;;;7.57;4.28;;;;;;;;;;4980341;28;20065;-66
2023/09/05 06:38:05;;;;;;;8.90;5.07;;;;;;;;;;5001740;28;20061;-66
2023/09/05 06:40:31;;;;;;;7.50;5.28;;;;;;;;;;5003307;28;20026;-65
2023/09/05 06:42:56;;;;;;;9.40;5.10;;;;;;;;;;5000949;28;20116;-65
2023/09/05 06:45:21;;;;;;;7.35;4.10;;;;;;;;;;5002384;28;20120;-65
2023/09/05 06:47:47;;;;;;;8.80;4.20;;;;;;;;;;4997636;28;20065;-66
2023/09/05 06:50:12;;;;;;;6.30;3.30;;;;;;;;;;4992606;28;20042;-68
2023/09/05 06:52:39;;;;;;;5.00;2.97;;;;;;;;;;4990742;28;20030;-66
2023/09/05 06:55:04;;;;;;;6.88;3.00;;;;;;;;;;4986283;28;20475;-65
2023/09/05 06:57:30;;;;;;;5.90;2.83;;;;;;;;;;4985361;28;20059;-67
2023/09/05 06:59:55;;;;;;;3.78;2.67;;;;;;;;;;4976509;28;20356;-67
2023/09/05 07:02:21;;;;;;;5.85;2.83;;;;;;;;;;4991971;28;20027;-67
2023/09/05 07:04:46;;;;;;;3.70;2.45;;;;;;;;;;4989167;28;20034;-67
2023/09/05 07:07:12;;;;;;;4.22;2.33;;;;;;;;;;4973147;28;20067;-67
2023/09/05 07:09:37;;;;;;;5.70;2.70;;;;;;;;;;4973164;28;20086;-66
2023/09/05 07:12:04;;;;;;;5.90;2.70;;;;;;;;;;4973475;28;20365;-66
2023/09/05 07:14:30;;;;;;;6.05;2.30;;;;;;;;;;4985159;28;20034;-64
2023/09/05 07:16:56;;;;;;;5.85;2.55;;;;;;;;;;4992842;28;20077;-66
2023/09/05 07:19:21;;;;;;;6.40;2.53;;;;;;;;;;4992531;28;20046;-66
2023/09/05 07:21:46;;;;;;;5.53;2.50;;;;;;;;;;4986102;28;20230;-65
2023/09/05 07:24:14;;;;;;;7.60;2.55;;;;;;;;;;4977262;28;20041;-67
2023/09/05 07:26:40;;;;;;;8.50;2.50;;;;;;;;;;4992732;28;20118;-66
2023/09/05 07:29:10;;;;;;;5.57;2.30;;;;;;;;;;4992238;28;20030;-66
2023/09/05 07:31:37;;;;;;;2.95;2.22;;;;;;;;;;4993108;28;20022;-67
2023/09/05 07:34:03;;;;;;;4.32;2.33;;;;;;;;;;4996548;28;20034;-67
2023/09/05 07:36:28;;;;;;;5.88;2.20;;;;;;;;;;4996607;28;20085;-68
2023/09/05 07:38:54;;;;;;;5.05;2.20;;;;;;;;;;4983109;28;20027;-67
2023/09/05 07:41:20;;;;;;;5.72;2.03;;;;;;;;;;4987576;28;20069;-67
2023/09/05 07:43:46;;;;;;;4.65;2.40;;;;;;;;;;4985543;28;20026;-66
2023/09/05 07:46:11;;;;;;;6.68;2.90;;;;;;;;;;4979081;28;20035;-66
2023/09/05 07:48:37;;;;;;;5.05;2.58;;;;;;;;;;4979156;28;20547;-62
2023/09/05 07:51:05;;;;;;;4.80;2.20;;;;;;;;;;4978945;28;20038;-67
2023/09/05 07:53:32;;;;;;;5.78;2.10;;;;;;;;;;4976716;28;20102;-67
2023/09/05 07:55:57;;;;;;;4.20;2.00;;;;;;;;;;4976764;28;20027;-67
2023/09/05 07:58:23;;;;;;;3.40;2.00;;;;;;;;;;4976188;28;20122;-65
2023/09/05 08:00:49;;;;;;;4.25;2.40;;;;;;;;;;4976922;28;20109;-67
2023/09/05 08:03:16;;;;;;;6.13;2.22;;;;;;;;;;4985117;28;20057;-66
2023/09/05 08:05:41;;;;;;;11.95;2.78;;;;;;;;;;4978191;28;20041;-63
2023/09/05 08:08:07;;;;;;;5.65;2.28;;;;;;;;;;4995874;28;20022;-68
2023/09/05 08:10:33;;;;;;;6.57;1.95;;;;;;;;;;4990768;28;20118;-66
2023/09/05 08:12:59;;;;;;;3.80;2.25;;;;;;;;;;4976168;28;20027;-67
2023/09/05 08:15:25;;;;;;;4.38;2.00;;;;;;;;;;4976433;28;20033;-67
2023/09/05 08:17:51;;;;;;;6.75;2.22;;;;;;;;;;4976505;28;20035;-66
2023/09/05 08:20:17;;;;;;;5.45;2.13;;;;;;;;;;4990449;28;20050;-66
2023/09/05 08:22:44;;;;;;;4.65;2.13;;;;;;;;;;4981809;28;20078;-61
2023/09/05 08:25:10;;;;;;;4.70;2.05;;;;;;;;;;4987759;28;20084;-63
2023/09/05 08:27:35;;;;;;;3.72;1.90;;;;;;;;;;4995305;28;20076;-62
2023/09/05 08:30:01;;;;;;;5.20;1.90;;;;;;;;;;4995570;28;20468;-62
2023/09/05 08:32:28;;;;;;;3.42;1.70;;;;;;;;;;4995711;28;20486;-61
2023/09/05 08:34:54;;;;;;;6.85;2.08;;;;;;;;;;4995538;28;20029;-62
2023/09/05 08:37:20;;;;;;;3.28;1.58;;;;;;;;;;4995384;28;20023;-62
2023/09/05 08:39:46;;;;;;;2.50;1.50;;;;;;;;;;4995495;28;20022;-62
2023/09/05 08:42:11;;;;;;;3.28;1.70;;;;;;;;;;4995344;28;20494;-62
2023/09/05 08:44:40;;;;;;;5.28;1.73;;;;;;;;;;4994599;28;20512;-62
2023/09/05 08:47:06;;;;;;;5.15;2.10;;;;;;;;;;4995231;28;20025;-62
2023/09/05 08:49:31;;;;;;;3.85;1.80;;;;;;;;;;4995269;28;20034;-63
2023/09/05 08:52:02;;;;;;;3.70;1.65;;;;;;;;;;4995447;28;20380;-62
2023/09/05 08:54:28;;;;;;;5.45;1.83;;;;;;;;;;4995286;28;20030;-62
2023/09/05 08:56:53;;;;;;;4.28;1.70;;;;;;;;;;4995051;28;20087;-62
2023/09/05 08:59:19;;;;;;;3.45;1.50;;;;;;;;;;4994876;28;20023;-62
2023/09/05 09:01:45;;;;;;;3.97;1.92;;;;;;;;;;4994983;28;20037;-62
2023/09/05 09:04:12;;;;;;;10.48;2.05;;;;;;;;;;4994743;28;20109;-62
2023/09/05 09:06:38;;;;;;;2.80;1.60;;;;;;;;;;4994584;28;20176;-63
2023/09/05 09:09:04;;;;;;;2.53;1.45;;;;;;;;;;4994847;28;20391;-62
2023/09/05 09:11:29;;;;;;;3.00;1.55;;;;;;;;;;4979561;28;20031;-67
2023/09/05 09:13:59;;;;;;;3.25;1.58;;;;;;;;;;4975426;28;20030;-67
2023/09/05 09:16:25;;;;;;;5.47;1.60;;;;;;;;;;4975313;28;20034;-63
2023/09/05 09:19:01;;;;;;;2.40;1.58;;;;;;;;;;4975144;28;20043;-63
2023/09/05 09:21:28;;;;;;;3.38;1.70;;;;;;;;;;4988025;28;20390;-62
2023/09/05 09:24:07;;;;;;;3.00;1.52;;;;;;;;;;4976597;28;20161;-62
2023/09/05 09:26:33;;;;;;;2.67;1.57;;;;;;;;;;4994398;28;20093;-62
2023/09/05 09:29:00;;;;;;;5.30;1.80;;;;;;;;;;4994488;28;20034;-62
2023/09/05 09:31:29;;;;;;;3.30;1.80;;;;;;;;;;4994467;28;20034;-63
2023/09/05 09:33:57;;;;;;;;;;;;;;;;;;4994751;28;20037;-64
2023/09/05 09:36:23;;;;;;;3.85;1.50;;;;;;;;;;4994013;28;19949;-62
2023/09/05 09:38:49;;;;;;;3.95;1.60;;;;;;;;;;4994470;28;20032;-62
2023/09/05 09:41:16;;;;;;;3.78;1.70;;;;;;;;;;4993978;28;20110;-62
2023/09/05 09:43:41;;;;;;;10.25;1.65;;;;;;;;;;4994229;28;20145;-62
2023/09/05 09:46:09;;;;;;;7.03;2.05;;;;;;;;;;4994161;28;20496;-62
2023/09/05 09:48:36;;;;;;;3.88;2.13;;;;;;;;;;4994128;28;20026;-62
2023/09/05 09:51:06;;;;;;;6.05;1.95;;;;;;;;;;4994164;28;20042;-62
2023/09/05 09:53:37;;;;;;;3.97;2.08;;;;;;;;;;4993923;28;20184;-62
2023/09/05 09:56:09;;;;;;;5.22;2.08;;;;;;;;;;4993210;28;20112;-62
2023/09/05 09:58:36;;;;;;;2.35;1.73;;;;;;;;;;4994187;28;20476;-62
2023/09/05 10:01:03;;;;;;;2.97;1.65;;;;;;;;;;4993828;28;20034;-63
2023/09/05 10:03:30;;;;;;;5.13;1.90;;;;;;;;;;4993881;28;20432;-62
2023/09/05 10:05:57;;;;;;;5.38;1.70;;;;;;;;;;4992293;28;20034;-62
2023/09/05 10:08:25;;;;;;;3.83;1.65;;;;;;;;;;4993669;28;20451;-62
2023/09/05 10:10:51;;;;;;;5.50;1.70;;;;;;;;;;4984187;28;20030;-62
2023/09/05 10:13:18;;;;;;;4.30;1.75;;;;;;;;;;4974314;28;20038;-62
2023/09/05 10:15:45;;;;;;;3.60;1.80;;;;;;;;;;4974188;28;20023;-62
2023/09/05 10:18:12;;;;;;;4.15;1.58;;;;;;;;;;4974129;28;20119;-62
2023/09/05 10:20:40;;;;;;;4.55;1.90;;;;;;;;;;4984159;28;20129;-62
2023/09/05 10:23:06;;;;;;;4.80;1.58;;;;;;;;;;4993088;28;20022;-63
2023/09/05 10:25:35;;;;;;;3.03;1.75;;;;;;;;;;4993264;28;20153;-62
2023/09/05 10:28:00;;;;;;;4.22;1.65;;;;;;;;;;4993549;28;20030;-62
2023/09/05 10:30:27;;;;;;;5.40;1.70;;;;;;;;;;4993124;28;20490;-62
2023/09/05 10:32:53;;;;;;;5.35;1.67;;;;;;;;;;4993419;28;20030;-62
2023/09/05 10:35:20;;;;;;;4.15;1.60;;;;;;;;;;4993264;28;20034;-62
2023/09/05 10:37:55;;;;;;;3.25;1.70;;;;;;;;;;4993030;28;20081;-62
2023/09/05 10:40:35;;;;;;;5.55;1.75;;;;;;;;;;4993414;28;20097;-62
2023/09/05 10:43:03;;;;;;;3.15;1.52;;;;;;;;;;4993252;28;20357;-62
2023/09/05 10:45:30;;;;;;;3.75;1.40;;;;;;;;;;4991827;28;20496;-64
2023/09/05 10:47:59;;;;;;;4.55;1.50;;;;;;;;;;4993319;28;20085;-64
2023/09/05 10:50:25;;;;;;;2.80;1.50;;;;;;;;;;4993280;28;20026;-62
2023/09/05 10:53:11;;;;;;;1.98;1.10;;;;;;;;;;4992894;28;20384;-61
2023/09/05 10:55:46;;;;;;;5.25;1.67;;;;;;;;;;4993176;28;20496;-61
2023/09/05 10:58:47;;;;;;;3.88;1.45;;;;;;;;;;4993132;28;20073;-63
2023/09/05 11:01:31;;;;;;;5.72;1.70;;;;;;;;;;4992985;28;20484;-63
2023/09/05 11:04:07;;;;;;;3.25;1.60;;;;;;;;;;4992579;28;20026;-62
2023/09/05 11:06:42;;;;;;;3.08;1.60;;;;;;;;;;4991767;28;20022;-61
2023/09/05 11:09:08;;;;;;;5.72;1.55;;;;;;;;;;4996991;28;20030;-61
2023/09/05 11:11:36;;;;;;;3.72;1.42;;;;;;;;;;4981702;28;20033;-65
2023/09/05 11:14:03;;;;;;;5.10;1.58;;;;;;;;;;4977742;28;20026;-62
2023/09/05 11:16:29;;;;;;;3.83;1.33;;;;;;;;;;4977572;28;20106;-63
2023/09/05 11:18:56;;;;;;;2.55;1.38;;;;;;;;;;4977235;28;20123;-62
2023/09/05 11:21:22;;;;;;;2.88;1.30;;;;;;;;;;4992880;28;20031;-67
2023/09/05 11:23:54;;;;;;;3.55;1.35;;;;;;;;;;4996340;28;20085;-62
2023/09/05 11:26:21;;;;;;;6.40;1.83;;;;;;;;;;4996884;28;20023;-62
2023/09/05 11:28:48;;;;;;;4.00;1.58;;;;;;;;;;4996820;28;20464;-62
2023/09/05 11:31:15;;;;;;;3.33;1.65;;;;;;;;;;4996348;28;20030;-63
2023/09/05 11:33:41;;;;;;;9.30;2.40;;;;;;;;;;4996480;28;20496;-62
2023/09/05 11:36:07;;;;;;;5.50;1.50;;;;;;;;;;4996473;28;20034;-63
2023/09/05 11:38:48;;;;;;;4.10;1.67;;;;;;;;;;4976996;28;20030;-62
2023/09/05 11:41:15;;;;;;;4.63;1.40;;;;;;;;;;4976921;28;20377;-63
2023/09/05 11:43:47;;;;;;;3.35;1.65;;;;;;;;;;4977055;28;20130;-62
2023/09/05 11:46:14;;;;;;;3.17;1.40;;;;;;;;;;4977049;28;20046;-62
2023/09/05 11:48:42;;;;;;;3.58;1.50;;;;;;;;;;4976943;28;20035;-62
2023/09/05 11:51:09;;;;;;;4.43;1.50;;;;;;;;;;4976428;28;20519;-62
2023/09/05 11:53:37;;;;;;;3.35;1.70;;;;;;;;;;4975498;28;20432;-63
2023/09/05 11:56:03;;;;;;;2.40;1.60;;;;;;;;;;4976840;28;20022;-62
2023/09/05 11:58:30;;;;;;;4.57;1.50;;;;;;;;;;4976779;28;20150;-63
2023/09/05 12:00:57;;;;;;;10.80;1.83;;;;;;;;;;4976608;28;20487;-65
2023/09/05 12:03:23;;;;;;;4.50;1.60;;;;;;;;;;4976774;28;20055;-63
2023/09/05 12:05:51;;;;;;;4.07;1.60;;;;;;;;;;4995321;28;20085;-62
2023/09/05 12:08:19;;;;;;;4.45;1.75;;;;;;;;;;4995796;28;20039;-62
2023/09/05 12:10:55;;;;;;;6.40;1.65;;;;;;;;;;4987173;28;20503;-62
2023/09/05 12:13:43;;;;;;;3.95;1.73;;;;;;;;;;4976445;28;20464;-62
2023/09/05 12:16:09;;;;;;;6.72;1.92;;;;;;;;;;4976383;28;20506;-62
2023/09/05 12:18:35;;;;;;;4.28;1.88;;;;;;;;;;4975175;28;20031;-62
2023/09/05 12:21:01;;;;;;;7.13;1.95;;;;;;;;;;4989194;28;20534;-63
2023/09/05 12:23:27;;;;;;;4.47;1.85;;;;;;;;;;4994371;28;20105;-63
2023/09/05 12:25:57;;;;;;;3.25;1.60;;;;;;;;;;4995622;28;20030;-62
2023/09/05 12:28:26;;;;;;;2.83;1.80;;;;;;;;;;4995753;28;20074;-63
2023/09/05 12:31:05;;;;;;;3.45;1.58;;;;;;;;;;4995633;28;20452;-62
2023/09/05 12:33:31;;;;;;;2.88;1.55;;;;;;;;;;4995327;28;20058;-63
2023/09/05 12:35:56;;;;;;;2.75;1.50;;;;;;;;;;4995665;28;20018;-62
2023/09/05 12:38:22;;;;;;;5.57;1.63;;;;;;;;;;4995524;28;20121;-65
2023/09/05 12:40:47;;;;;;;3.47;1.60;;;;;;;;;;4995546;28;20024;-63
2023/09/05 12:43:13;;;;;;;3.92;1.60;;;;;;;;;;4993931;28;20125;-62
2023/09/05 12:45:42;;;;;;;5.38;1.80;;;;;;;;;;4995255;28;20031;-63
2023/09/05 12:48:08;;;;;;;3.92;1.88;;;;;;;;;;4994918;28;20077;-63
2023/09/05 12:50:36;;;;;;;3.08;1.50;;;;;;;;;;4995338;28;20042;-63
2023/09/05 12:53:04;;;;;;;4.28;1.50;;;;;;;;;;4995166;28;20034;-63
2023/09/05 12:55:31;;;;;;;4.43;1.60;;;;;;;;;;4995121;28;20030;-62
2023/09/05 12:57:58;;;;;;;6.03;1.40;;;;;;;;;;4995249;28;20364;-66
2023/09/05 13:00:24;;;;;;;2.78;1.60;;;;;;;;;;4994751;28;20033;-63
2023/09/05 13:02:49;;;;;;;3.58;1.40;;;;;;;;;;4994904;28;20426;-63
2023/09/05 13:05:15;;;;;;;3.45;1.30;;;;;;;;;;4994944;28;20023;-67
2023/09/05 13:07:41;;;;;;;2.45;1.40;;;;;;;;;;4994813;28;20030;-63
2023/09/05 13:10:08;;;;;;;7.55;1.75;;;;;;;;;;4991104;28;20019;-62
2023/09/05 13:12:34;;;;;;;3.50;1.30;;;;;;;;;;4975368;28;20034;-67
2023/09/05 13:15:00;;;;;;;5.07;1.40;;;;;;;;;;4975224;28;20031;-65
2023/09/05 13:17:26;;;;;;;2.28;1.30;;;;;;;;;;4974936;28;20086;-66
2023/09/05 13:19:51;;;;;;;2.92;1.60;;;;;;;;;;4978736;28;20196;-63
2023/09/05 13:22:17;;;;;;;3.85;1.50;;;;;;;;;;4994474;28;20034;-62
2023/09/05 13:24:45;;;;;;;2.70;1.60;;;;;;;;;;4994327;28;20062;-62
2023/09/05 13:27:12;;;;;;;2.30;1.35;;;;;;;;;;4994530;28;20038;-66
2023/09/05 13:29:38;;;;;;;3.58;1.60;;;;;;;;;;4993991;28;20031;-64
2023/09/05 13:32:08;;;;;;;3.53;1.63;;;;;;;;;;4994225;28;20037;-61
2023/09/05 13:34:34;;;;;;;2.75;1.48;;;;;;;;;;4994663;28;20092;-61
2023/09/05 13:37:00;;;;;;;3.22;1.20;;;;;;;;;;4993992;28;20034;-61
2023/09/05 13:39:26;;;;;;;3.35;1.50;;;;;;;;;;4994329;28;20022;-61
2023/09/05 13:41:55;;;;;;;5.50;1.42;;;;;;;;;;4994347;28;20026;-61
2023/09/05 13:44:21;;;;;;;3.15;1.33;;;;;;;;;;4994263;28;20030;-63
2023/09/05 13:46:47;;;;;;;5.00;1.50;;;;;;;;;;4994029;28;20034;-61
2023/09/05 13:49:13;;;;;;;3.40;1.33;;;;;;;;;;4994018;28;20056;-61
2023/09/05 13:51:39;;;;;;;5.50;1.10;;;;;;;;;;4994062;28;20070;-61
2023/09/05 13:54:05;;;;;;;2.97;1.10;;;;;;;;;;4994021;28;20058;-66
2023/09/05 13:56:32;;;;;;;1.90;1.00;;;;;;;;;;4994001;28;20085;-63
2023/09/05 13:58:57;;;;;;;5.07;1.10;;;;;;;;;;4993669;28;20030;-62
2023/09/05 14:01:22;;;;;;;2.45;1.20;;;;;;;;;;4993539;28;20103;-62
2023/09/05 14:03:48;;;;;;;2.05;1.00;;;;;;;;;;4993772;28;20026;-61
2023/09/05 14:06:14;;;;;;;2.53;1.20;;;;;;;;;;4993785;28;20034;-63
2023/09/05 14:08:40;;;;;;;3.70;1.10;;;;;;;;;;4993787;28;20041;-61
2023/09/05 14:11:06;;;;;;;2.50;1.25;;;;;;;;;;4981934;28;20031;-63
2023/09/05 14:13:32;;;;;;;2.13;1.00;;;;;;;;;;4974262;28;20033;-62
2023/09/05 14:15:59;;;;;;;2.65;1.10;;;;;;;;;;4974394;28;20101;-64
2023/09/05 14:18:25;;;;;;;4.53;1.20;;;;;;;;;;4974278;28;20038;-67
2023/09/05 14:20:50;;;;;;;3.85;1.35;;;;;;;;;;4986086;28;20387;-64
2023/09/05 14:23:15;;;;;;;3.13;1.40;;;;;;;;;;4993260;28;20128;-62
2023/09/05 14:25:41;;;;;;;4.53;1.30;;;;;;;;;;4993461;28;20456;-62
2023/09/05 14:28:06;;;;;;;5.55;1.10;;;;;;;;;;4993535;28;20054;-63
2023/09/05 14:30:32;;;;;;;1.83;1.08;;;;;;;;;;4993167;28;20121;-68
2023/09/05 14:32:58;;;;;;;4.07;1.10;;;;;;;;;;4993314;28;20092;-63
2023/09/05 14:35:23;;;;;;;3.30;1.40;;;;;;;;;;4993368;28;20026;-66
2023/09/05 14:37:52;;;;;;;2.85;1.40;;;;;;;;;;4993135;28;20038;-63
2023/09/05 14:40:17;;;;;;;2.92;1.10;;;;;;;;;;4991988;28;20549;-68
2023/09/05 14:42:42;;;;;;;5.80;1.52;;;;;;;;;;4992770;28;20022;-64